createdAt,value
2018-03-16T00:00:41.896Z,58.83
2018-03-16T00:03:10.310Z,58.34
2018-03-16T00:05:38.711Z,64.96
2018-03-16T00:08:07.096Z,62.82
2018-03-16T00:10:35.639Z,62.58
2018-03-16T00:13:04.108Z,61.70
2018-03-16T00:15:32.726Z,64.52
2018-03-16T00:18:01.124Z,62.45
2018-03-16T00:20:29.520Z,61.07
2018-03-16T00:22:57.991Z,58.75
2018-03-16T00:25:26.402Z,63.60
2018-03-16T00:27:54.806Z,65.97
2018-03-16T00:30:23.193Z,63.07
2018-03-16T00:32:51.603Z,65.30
2018-03-16T00:35:20.157Z,62.94
2018-03-16T00:37:48.552Z,64.97
2018-03-16T00:40:16.948Z,62.81
2018-03-16T00:42:45.356Z,65.43
2018-03-16T00:45:13.747Z,64.40
2018-03-16T00:47:42.152Z,64.62
2018-03-16T00:50:10.545Z,64.73
2018-03-16T00:52:39.011Z,66.44
2018-03-16T00:55:07.408Z,64.34
2018-03-16T00:57:35.825Z,65.23
2018-03-16T01:00:04.215Z,66.81
2018-03-16T01:02:32.613Z,70.00
2018-03-16T01:05:01.077Z,65.77
2018-03-16T01:07:29.476Z,66.17
2018-03-16T01:09:57.971Z,68.81
2018-03-16T01:14:53.904Z,64.12
2018-03-16T01:17:22.379Z,66.80
2018-03-16T01:19:50.781Z,66.93
2018-03-16T01:22:19.296Z,65.65
2018-03-16T01:24:47.708Z,62.84
2018-03-16T01:27:16.157Z,60.62
2018-03-16T01:29:44.557Z,64.14
2018-03-16T01:32:12.959Z,67.09
2018-03-16T01:34:41.381Z,63.74
2018-03-16T01:37:09.807Z,63.01
2018-03-16T01:39:38.230Z,62.97
2018-03-16T01:42:06.620Z,61.83
2018-03-16T01:44:35.068Z,60.65
2018-03-16T01:47:03.474Z,60.77
2018-03-16T01:49:31.873Z,64.36
2018-03-16T01:52:00.272Z,64.65
2018-03-16T01:54:28.804Z,62.24
2018-03-16T01:56:57.204Z,60.91
2018-03-16T01:59:25.628Z,63.04
2018-03-16T02:01:54.137Z,62.43
2018-03-16T02:04:22.691Z,62.50
2018-03-16T02:06:51.178Z,65.47
2018-03-16T02:09:19.571Z,64.57
2018-03-16T02:11:47.978Z,65.14
2018-03-16T02:14:16.375Z,60.73
2018-03-16T02:16:44.768Z,59.09
2018-03-16T02:19:13.215Z,62.60
2018-03-16T02:21:41.693Z,61.22
2018-03-16T02:24:10.107Z,62.88
2018-03-16T02:26:38.515Z,59.20
2018-03-16T02:29:07.019Z,60.31
2018-03-16T02:31:35.706Z,60.69
2018-03-16T02:34:04.115Z,59.17
2018-03-16T02:36:32.533Z,59.92
2018-03-16T02:39:00.925Z,64.99
2018-03-16T02:41:29.395Z,65.18
2018-03-16T02:43:57.844Z,64.63
2018-03-16T02:46:26.254Z,62.84
2018-03-16T02:48:54.716Z,62.66
2018-03-16T02:51:23.125Z,62.18
2018-03-16T02:53:51.521Z,63.71
2018-03-16T02:56:19.980Z,66.77
2018-03-16T02:58:48.368Z,64.97
2018-03-16T03:01:16.767Z,67.02
2018-03-16T03:03:45.223Z,66.38
2018-03-16T03:06:13.630Z,64.58
2018-03-16T03:08:42.034Z,65.58
2018-03-16T03:11:10.426Z,63.28
2018-03-16T03:13:38.991Z,63.33
2018-03-16T03:16:07.468Z,64.36
2018-03-16T03:18:35.863Z,62.88
2018-03-16T03:21:04.273Z,61.16
2018-03-16T03:23:32.705Z,66.03
2018-03-16T03:26:01.331Z,65.14
2018-03-16T03:28:29.728Z,63.98
2018-03-16T03:30:58.132Z,63.06
2018-03-16T03:33:26.597Z,61.67
2018-03-16T03:35:54.992Z,62.22
2018-03-16T03:38:23.419Z,63.49
2018-03-16T03:40:51.795Z,64.80
2018-03-16T03:43:20.254Z,67.05
2018-03-16T03:45:48.633Z,63.94
2018-03-16T03:48:17.038Z,64.68
2018-03-16T03:50:45.435Z,65.87
2018-03-16T03:53:13.838Z,64.25
2018-03-16T03:55:42.340Z,67.94
2018-03-16T03:58:10.716Z,63.91
2018-03-16T04:00:39.264Z,62.24
2018-03-16T04:03:07.675Z,65.51
2018-03-16T04:05:36.119Z,62.31
2018-03-16T04:08:04.529Z,61.94
2018-03-16T04:10:33.012Z,61.29
2018-03-16T04:13:01.415Z,60.89
2018-03-16T04:15:29.803Z,59.47
2018-03-16T04:17:58.253Z,61.12
2018-03-16T04:20:26.648Z,61.73
2018-03-16T04:22:55.035Z,61.52
2018-03-16T04:25:23.439Z,61.55
2018-03-16T04:27:51.927Z,63.67
2018-03-16T04:30:20.372Z,61.28
2018-03-16T04:32:48.794Z,62.74
2018-03-16T04:35:17.423Z,61.26
2018-03-16T04:37:45.900Z,64.68
2018-03-16T04:40:14.414Z,60.92
2018-03-16T04:42:43.018Z,65.42
2018-03-16T04:45:11.416Z,64.12
2018-03-16T04:47:39.804Z,63.09
2018-03-16T04:50:08.205Z,67.68
2018-03-16T04:52:36.592Z,64.36
2018-03-16T04:55:05.268Z,62.81
2018-03-16T04:57:33.651Z,62.11
2018-03-16T05:00:02.024Z,62.68
2018-03-16T05:02:30.409Z,62.77
2018-03-16T05:04:59.001Z,64.17
2018-03-16T05:07:27.429Z,61.58
2018-03-16T05:09:55.813Z,62.35
2018-03-16T05:12:24.261Z,64.06
2018-03-16T05:14:52.656Z,64.41
2018-03-16T05:17:21.057Z,64.99
2018-03-16T05:19:49.440Z,64.66
2018-03-16T05:22:17.897Z,63.74
2018-03-16T05:24:46.387Z,62.06
2018-03-16T05:27:14.756Z,61.74
2018-03-16T05:29:43.146Z,62.69
2018-03-16T05:32:11.527Z,62.28
2018-03-16T05:34:39.930Z,63.30
2018-03-16T05:37:08.441Z,65.47
2018-03-16T05:39:36.834Z,64.46
2018-03-16T05:42:05.506Z,66.77
2018-03-16T05:44:33.951Z,65.63
2018-03-16T05:47:02.443Z,65.89
2018-03-16T05:49:30.937Z,64.87
2018-03-16T05:51:59.409Z,62.12
2018-03-16T05:54:27.910Z,63.13
2018-03-16T05:56:56.287Z,61.67
2018-03-16T05:59:24.758Z,61.00
2018-03-16T06:01:53.135Z,58.85
2018-03-16T06:04:21.624Z,59.29
2018-03-16T06:06:50.008Z,60.64
2018-03-16T06:09:18.396Z,59.54
2018-03-16T06:11:46.872Z,61.22
2018-03-16T06:14:15.363Z,61.23
2018-03-16T06:16:43.823Z,61.10
2018-03-16T06:19:12.296Z,58.98
2018-03-16T06:21:40.692Z,61.25
2018-03-16T06:24:09.522Z,58.79
2018-03-16T06:26:37.905Z,58.32
2018-03-16T06:29:06.321Z,57.49
2018-03-16T06:31:36.784Z,58.66
2018-03-16T06:34:05.186Z,57.24
2018-03-16T06:36:33.976Z,58.51
2018-03-16T06:39:02.375Z,59.48
2018-03-16T06:41:30.777Z,58.77
2018-03-16T06:43:59.202Z,58.85
2018-03-16T06:46:27.596Z,59.84
2018-03-16T06:48:56.041Z,59.37
2018-03-16T06:51:24.415Z,58.07
2018-03-16T06:53:52.796Z,57.93
2018-03-16T06:56:21.178Z,57.99
2018-03-16T06:58:49.661Z,57.44
2018-03-16T07:01:18.120Z,59.53
2018-03-16T07:03:46.520Z,57.70
2018-03-16T07:06:14.915Z,58.34
2018-03-16T07:08:43.311Z,58.98
2018-03-16T07:11:11.733Z,59.43
2018-03-16T07:13:40.173Z,59.04
2018-03-16T07:16:08.641Z,56.73
2018-03-16T07:18:37.058Z,60.05
2018-03-16T07:21:05.503Z,58.13
2018-03-16T07:23:33.921Z,59.06
2018-03-16T07:26:02.344Z,60.33
2018-03-16T07:28:30.727Z,58.55
2018-03-16T07:30:59.156Z,58.09
2018-03-16T07:33:27.550Z,57.53
2018-03-16T07:35:55.996Z,58.41
2018-03-16T07:38:24.382Z,57.79
2018-03-16T07:40:52.823Z,59.13
2018-03-16T07:43:21.230Z,63.06
2018-03-16T07:45:55.510Z,61.37
2018-03-16T07:48:23.898Z,62.45
2018-03-16T07:50:52.287Z,61.03
2018-03-16T07:53:20.753Z,58.89
2018-03-16T07:55:49.169Z,57.64
2018-03-16T07:58:17.659Z,60.31
2018-03-16T08:00:46.045Z,59.43
2018-03-16T08:03:14.473Z,59.32
2018-03-16T08:05:42.872Z,58.38
2018-03-16T08:08:11.265Z,59.29
2018-03-16T08:10:39.710Z,60.29
2018-03-16T08:13:08.133Z,57.67
2018-03-16T08:15:36.527Z,56.95
2018-03-16T08:18:04.904Z,57.01
2018-03-16T08:20:33.303Z,56.73
2018-03-16T08:23:01.753Z,57.36
2018-03-16T08:25:30.244Z,55.86
2018-03-16T08:27:58.728Z,54.89
2018-03-16T08:30:27.137Z,54.35
2018-03-16T08:32:55.518Z,54.05
2018-03-16T08:35:23.916Z,56.51
2018-03-16T08:37:52.317Z,55.87
2018-03-16T08:40:20.797Z,55.45
2018-03-16T08:42:49.183Z,55.12
2018-03-16T08:45:17.583Z,55.42
2018-03-16T08:47:45.954Z,55.64
2018-03-16T08:50:14.445Z,54.78
2018-03-16T08:52:42.880Z,55.54
2018-03-16T08:55:11.257Z,57.24
2018-03-16T08:57:39.677Z,56.29
2018-03-16T09:00:08.078Z,54.27
2018-03-16T09:02:36.560Z,55.67
2018-03-16T09:05:05.275Z,56.92
2018-03-16T09:07:33.675Z,56.42
2018-03-16T09:10:02.075Z,56.38
2018-03-16T09:12:30.520Z,56.37
2018-03-16T09:14:58.892Z,59.85
2018-03-16T09:17:27.335Z,57.34
2018-03-16T09:19:55.728Z,55.45
2018-03-16T09:22:24.127Z,55.63
2018-03-16T09:24:52.524Z,56.03
2018-03-16T09:27:20.936Z,56.77
2018-03-16T09:29:49.363Z,52.96
2018-03-16T09:32:17.763Z,53.02
2018-03-16T09:34:46.155Z,52.27
2018-03-16T09:37:14.551Z,54.09
2018-03-16T09:39:42.966Z,54.25
2018-03-16T09:42:11.548Z,55.01
2018-03-16T09:44:39.928Z,53.30
2018-03-16T09:47:08.323Z,51.25
2018-03-16T09:49:36.733Z,51.35
2018-03-16T09:52:05.139Z,54.53
2018-03-16T09:54:45.894Z,54.39
2018-03-16T09:57:14.322Z,54.80
2018-03-16T09:59:42.711Z,55.78
2018-03-16T10:02:11.140Z,53.62
2018-03-16T10:04:39.557Z,54.45
2018-03-16T10:07:08.009Z,55.55
2018-03-16T10:09:36.404Z,54.50
2018-03-16T10:12:04.913Z,54.22
2018-03-16T10:14:33.288Z,55.02
2018-03-16T10:17:01.693Z,55.20
2018-03-16T10:19:30.153Z,55.22
2018-03-16T10:21:58.643Z,54.28
2018-03-16T10:24:27.024Z,52.86
2018-03-16T10:26:55.465Z,52.10
2018-03-16T10:29:24.150Z,54.47
2018-03-16T10:31:52.588Z,54.05
2018-03-16T10:34:20.989Z,55.61
2018-03-16T10:36:49.377Z,56.08
2018-03-16T10:39:17.825Z,54.98
2018-03-16T10:41:46.220Z,55.01
2018-03-16T10:44:14.640Z,56.36
2018-03-16T10:46:43.054Z,56.36
2018-03-16T10:49:11.486Z,57.11
2018-03-16T10:51:39.860Z,54.37
2018-03-16T10:54:08.320Z,56.48
2018-03-16T10:56:36.737Z,55.66
2018-03-16T10:59:05.128Z,57.63
2018-03-16T11:01:39.289Z,56.42
2018-03-16T11:04:13.481Z,55.41
2018-03-16T11:06:46.847Z,56.19
2018-03-16T11:09:15.287Z,57.57
2018-03-16T11:11:43.744Z,55.49
2018-03-16T11:14:13.214Z,55.45
2018-03-16T11:16:41.690Z,54.88
2018-03-16T11:19:10.097Z,54.78
2018-03-16T11:21:38.493Z,55.73
2018-03-16T11:24:06.894Z,55.34
2018-03-16T11:26:35.280Z,55.00
2018-03-16T11:29:03.868Z,53.74
2018-03-16T11:31:32.357Z,52.71
2018-03-16T11:34:00.794Z,54.44
2018-03-16T11:36:29.357Z,55.05
2018-03-16T11:38:57.874Z,52.59
2018-03-16T11:41:26.377Z,54.22
2018-03-16T11:43:54.863Z,53.62
2018-03-16T11:46:23.401Z,55.53
2018-03-16T11:48:51.829Z,53.58
2018-03-16T11:51:20.373Z,53.66
2018-03-16T11:53:48.826Z,56.25
2018-03-16T11:56:17.276Z,56.45
2018-03-16T11:58:45.692Z,57.72
2018-03-16T12:01:14.203Z,59.02
2018-03-16T12:03:42.884Z,57.36
2018-03-16T12:06:11.439Z,53.87
2018-03-16T12:08:39.862Z,54.06
2018-03-16T12:11:08.332Z,56.34
2018-03-16T12:13:36.861Z,54.78
2018-03-16T12:16:05.514Z,56.91
2018-03-16T12:18:33.968Z,57.14
2018-03-16T12:21:02.615Z,56.31
2018-03-16T12:23:31.049Z,55.53
2018-03-16T12:25:59.449Z,53.62
2018-03-16T12:28:49.176Z,54.92
2018-03-16T12:30:56.409Z,54.62
2018-03-16T12:33:24.808Z,55.15
2018-03-16T12:35:53.218Z,53.16
2018-03-16T12:38:21.639Z,52.24
2018-03-16T12:40:50.034Z,53.13
2018-03-16T12:43:18.646Z,56.37
2018-03-16T12:45:47.042Z,55.10
2018-03-16T12:48:15.448Z,54.85
2018-03-16T12:50:43.923Z,54.76
2018-03-16T12:53:12.323Z,53.55
2018-03-16T12:55:40.720Z,59.29
2018-03-16T12:58:09.320Z,58.03
2018-03-16T13:00:37.836Z,55.19
2018-03-16T13:03:06.261Z,55.37
2018-03-16T13:05:34.679Z,53.85
2018-03-16T13:08:03.115Z,54.53
2018-03-16T13:10:31.520Z,53.66
2018-03-16T13:12:59.966Z,54.28
2018-03-16T13:15:28.349Z,55.39
2018-03-16T13:17:56.771Z,54.71
2018-03-16T13:20:25.156Z,57.03
2018-03-16T13:22:53.567Z,57.62
2018-03-16T13:25:22.040Z,57.77
2018-03-16T13:27:50.480Z,57.43
2018-03-16T13:30:18.877Z,60.47
2018-03-16T13:32:47.265Z,61.70
2018-03-16T13:35:15.676Z,59.33
2018-03-16T13:37:44.144Z,62.54
2018-03-16T13:40:12.531Z,62.08
2018-03-16T13:42:40.911Z,61.51
2018-03-16T13:45:09.373Z,61.76
2018-03-16T13:47:37.764Z,61.60
2018-03-16T13:50:06.222Z,60.04
2018-03-16T13:52:34.616Z,60.74
2018-03-16T13:55:03.021Z,58.93
2018-03-16T13:57:31.406Z,60.70
2018-03-16T13:59:59.804Z,62.58
2018-03-16T14:02:28.272Z,63.51
2018-03-16T14:04:56.749Z,65.20
2018-03-16T14:07:25.129Z,64.24
2018-03-16T14:09:53.520Z,61.89
2018-03-16T14:12:21.910Z,61.80
2018-03-16T14:14:50.333Z,63.40
2018-03-16T14:17:18.725Z,63.98
2018-03-16T14:19:47.104Z,65.51
2018-03-16T14:22:15.525Z,62.65
2018-03-16T14:24:43.916Z,62.84
2018-03-16T14:27:12.362Z,63.84
2018-03-16T14:29:40.745Z,64.95
2018-03-16T14:32:09.139Z,62.55
2018-03-16T14:34:37.515Z,64.27
2018-03-16T14:37:05.938Z,64.24
2018-03-16T14:39:34.394Z,64.59
2018-03-16T14:42:02.805Z,62.73
2018-03-16T14:44:31.193Z,61.77
2018-03-16T14:46:59.577Z,63.26
2018-03-16T14:49:27.972Z,66.89
2018-03-16T14:51:56.419Z,64.28
2018-03-16T14:54:24.797Z,63.18
2018-03-16T14:56:53.201Z,64.33
2018-03-16T14:59:21.689Z,66.33
2018-03-16T15:01:50.062Z,67.20
2018-03-16T15:04:18.572Z,63.95
2018-03-16T15:06:46.940Z,64.60
2018-03-16T15:09:15.334Z,63.85
2018-03-16T15:11:43.717Z,66.91
2018-03-16T15:14:12.200Z,66.27
2018-03-16T15:16:40.680Z,65.46
2018-03-16T15:19:09.184Z,66.53
2018-03-16T15:21:37.631Z,64.39
2018-03-16T15:24:06.025Z,63.45
2018-03-16T15:26:34.533Z,64.91
2018-03-16T15:29:03.040Z,64.38
2018-03-16T15:31:31.443Z,62.00
2018-03-16T15:33:59.888Z,63.38
2018-03-16T15:36:28.422Z,63.60
2018-03-16T15:38:56.791Z,64.69
2018-03-16T15:41:25.152Z,65.10
2018-03-16T15:43:53.553Z,66.37
2018-03-16T15:46:21.918Z,66.16
2018-03-16T15:48:50.306Z,61.78
2018-03-16T15:51:18.760Z,64.78
2018-03-16T15:53:47.150Z,65.31
2018-03-16T15:56:15.602Z,63.11
2018-03-16T15:58:43.992Z,64.87
2018-03-16T16:01:12.374Z,63.86
2018-03-16T16:03:40.804Z,64.34
2018-03-16T16:06:09.195Z,66.93
2018-03-16T16:08:37.617Z,65.64
2018-03-16T16:11:06.005Z,66.77
2018-03-16T16:13:34.470Z,66.34
2018-03-16T16:16:02.941Z,64.80
2018-03-16T16:18:31.336Z,64.97
2018-03-16T16:20:59.785Z,64.45
2018-03-16T16:23:28.249Z,67.18
2018-03-16T16:25:56.632Z,68.18
2018-03-16T16:28:24.986Z,66.87
2018-03-16T16:30:53.381Z,66.07
2018-03-16T16:33:21.899Z,67.48
2018-03-16T16:35:50.304Z,64.58
2018-03-16T16:38:18.713Z,65.43
2018-03-16T16:40:47.074Z,66.91
2018-03-16T16:43:15.431Z,64.62
2018-03-16T16:45:43.897Z,64.38
2018-03-16T16:48:12.278Z,63.04
2018-03-16T16:50:40.687Z,63.66
2018-03-16T16:53:09.182Z,64.38
2018-03-16T16:55:37.595Z,65.65
2018-03-16T16:58:06.101Z,64.64
2018-03-16T17:00:34.495Z,62.38
2018-03-16T17:03:02.896Z,63.93
2018-03-16T17:05:31.440Z,64.13
2018-03-16T17:07:59.912Z,60.89
2018-03-16T17:10:28.398Z,60.22
2018-03-16T17:12:56.759Z,61.32
2018-03-16T17:15:25.126Z,65.21
2018-03-16T17:17:53.502Z,63.43
2018-03-16T17:20:21.888Z,65.18
2018-03-16T17:22:50.249Z,64.73
2018-03-16T17:25:18.634Z,63.80
2018-03-16T17:27:47.079Z,62.33
2018-03-16T17:30:15.453Z,62.84
2018-03-16T17:32:43.955Z,62.04
2018-03-16T17:35:12.480Z,62.79
2018-03-16T17:37:40.885Z,62.15
2018-03-16T17:40:09.278Z,63.90
2018-03-16T17:42:37.644Z,62.82
2018-03-16T17:45:06.112Z,63.09
2018-03-16T17:47:34.509Z,62.54
2018-03-16T17:50:02.866Z,62.64
2018-03-16T17:52:31.244Z,60.99
2018-03-16T17:54:59.613Z,62.96
2018-03-16T17:57:27.963Z,66.18
2018-03-16T17:59:56.392Z,62.67
2018-03-16T18:02:24.747Z,63.80
2018-03-16T18:04:53.104Z,64.20
2018-03-16T18:07:21.463Z,66.56
2018-03-16T18:09:49.829Z,65.37
2018-03-16T18:12:18.232Z,65.23
2018-03-16T18:14:46.640Z,68.32
2018-03-16T18:17:15.068Z,66.15
2018-03-16T18:19:43.452Z,65.98
2018-03-16T18:22:11.828Z,67.85
2018-03-16T18:24:40.232Z,68.51
2018-03-16T18:27:08.680Z,66.64
2018-03-16T18:29:37.289Z,63.74
2018-03-16T18:32:05.716Z,66.72
2018-03-16T18:34:34.086Z,66.88
2018-03-16T18:37:02.460Z,65.68
2018-03-16T18:39:30.829Z,63.87
2018-03-16T18:41:59.250Z,65.00
2018-03-16T18:44:27.753Z,61.98
2018-03-16T18:46:56.221Z,60.35
2018-03-16T18:49:24.589Z,61.63
2018-03-16T18:51:52.958Z,61.26
2018-03-16T18:54:21.359Z,59.73
2018-03-16T18:56:49.819Z,62.22
2018-03-16T18:59:18.365Z,64.66
2018-03-16T19:01:46.746Z,62.31
2018-03-16T19:04:15.152Z,64.34
2018-03-16T19:06:43.532Z,62.46
2018-03-16T19:09:11.911Z,62.64
2018-03-16T19:11:40.354Z,63.09
2018-03-16T19:14:08.715Z,63.71
2018-03-16T19:16:37.120Z,63.14
2018-03-16T19:19:05.490Z,60.16
2018-03-16T19:21:33.857Z,60.04
2018-03-16T19:24:02.264Z,61.94
2018-03-16T19:26:30.662Z,61.16
2018-03-16T19:28:59.174Z,62.11
2018-03-16T19:31:27.568Z,62.48
2018-03-16T19:33:55.976Z,61.60
2018-03-16T19:36:24.327Z,62.76
2018-03-16T19:38:52.721Z,63.71
2018-03-16T19:41:21.145Z,64.54
2018-03-16T19:43:49.568Z,65.13
2018-03-16T19:46:17.962Z,65.04
2018-03-16T19:48:46.447Z,60.46
2018-03-16T19:51:14.829Z,65.13
2018-03-16T19:53:43.237Z,60.18
2018-03-16T19:56:11.694Z,61.47
2018-03-16T19:58:40.097Z,59.12
2018-03-16T20:01:08.503Z,59.04
2018-03-16T20:03:36.871Z,59.07
2018-03-16T20:06:05.320Z,59.91
2018-03-16T20:08:33.862Z,62.72
2018-03-16T20:11:02.229Z,62.43
2018-03-16T20:13:30.591Z,64.45
2018-03-16T20:15:59.064Z,61.63
2018-03-16T20:18:27.477Z,64.15
2018-03-16T20:20:55.828Z,65.11
2018-03-16T20:23:24.219Z,61.85
2018-03-16T20:25:52.598Z,62.90
2018-03-16T20:28:20.965Z,64.14
2018-03-16T20:30:49.404Z,64.90
2018-03-16T20:33:17.775Z,66.94
2018-03-16T20:35:46.137Z,63.89
2018-03-16T20:38:14.501Z,66.83
2018-03-16T20:40:42.873Z,67.00
2018-03-16T20:43:11.580Z,64.69
2018-03-16T20:45:40.011Z,64.07
2018-03-16T20:48:08.377Z,66.42
2018-03-16T20:50:36.752Z,65.41
2018-03-16T20:53:05.115Z,65.78
2018-03-16T20:55:35.298Z,64.67
2018-03-16T20:58:07.010Z,65.18
2018-03-16T21:00:35.556Z,66.20
2018-03-16T21:03:03.928Z,67.12
2018-03-16T21:05:32.322Z,68.70
2018-03-16T21:08:00.689Z,67.11
2018-03-16T21:10:29.063Z,65.98
2018-03-16T21:12:57.470Z,64.52
2018-03-16T21:15:25.847Z,65.39
2018-03-16T21:17:54.624Z,63.34
2018-03-16T21:20:23.016Z,63.24
2018-03-16T21:22:51.500Z,64.46
2018-03-16T21:25:19.966Z,66.97
2018-03-16T21:27:48.305Z,67.58
2018-03-16T21:30:16.749Z,64.75
2018-03-16T21:32:45.142Z,62.79
2018-03-16T21:35:13.513Z,65.31
2018-03-16T21:37:41.902Z,67.45
2018-03-16T21:40:10.264Z,64.91
2018-03-16T21:42:38.690Z,65.12
2018-03-16T21:45:07.068Z,65.78
2018-03-16T21:47:35.432Z,65.96
2018-03-16T21:50:03.791Z,64.11
2018-03-16T21:52:32.164Z,64.24
2018-03-16T21:55:00.972Z,64.71
2018-03-16T21:57:29.347Z,65.94
2018-03-16T21:59:57.833Z,62.69
2018-03-16T22:02:26.225Z,66.46
2018-03-16T22:04:54.616Z,66.80
2018-03-16T22:07:23.293Z,63.80
2018-03-16T22:09:51.669Z,65.31
2018-03-16T22:12:20.132Z,66.03
2018-03-16T22:14:48.499Z,66.90
2018-03-16T22:17:16.920Z,65.56
2018-03-16T22:19:45.599Z,64.97
2018-03-16T22:22:13.965Z,65.18
2018-03-16T22:24:42.311Z,62.83
2018-03-16T22:27:10.693Z,64.12
2018-03-16T22:29:39.059Z,67.56
2018-03-16T22:32:07.934Z,68.15
2018-03-16T22:34:36.315Z,65.97
2018-03-16T22:37:04.699Z,68.91
2018-03-16T22:39:33.084Z,69.16
2018-03-16T22:42:01.548Z,65.93
2018-03-16T22:44:30.013Z,65.29
2018-03-16T22:46:58.378Z,65.49
2018-03-16T22:49:26.741Z,69.36
2018-03-16T22:51:55.154Z,67.55
2018-03-16T22:54:23.528Z,67.68
2018-03-16T22:56:52.279Z,69.25
2018-03-16T22:59:20.624Z,64.67
2018-03-16T23:01:48.972Z,65.73
2018-03-16T23:04:17.342Z,64.67
2018-03-16T23:06:45.817Z,62.91
2018-03-16T23:09:14.251Z,63.75
2018-03-16T23:11:42.628Z,65.72
2018-03-16T23:14:10.976Z,63.55
2018-03-16T23:16:39.355Z,66.70
2018-03-16T23:19:07.851Z,67.66
2018-03-16T23:21:36.218Z,69.83
2018-03-16T23:24:04.579Z,64.89
2018-03-16T23:26:32.944Z,63.16
2018-03-16T23:29:01.315Z,65.67
2018-03-16T23:31:29.723Z,66.04
2018-03-16T23:33:58.077Z,66.59
2018-03-16T23:36:26.449Z,65.51
2018-03-16T23:38:54.823Z,65.88
2018-03-16T23:41:23.187Z,63.46
2018-03-16T23:43:51.904Z,66.74
2018-03-16T23:46:20.291Z,62.54
2018-03-16T23:48:48.669Z,63.04
2018-03-16T23:51:17.038Z,65.35
2018-03-16T23:53:45.397Z,64.11
2018-03-16T23:56:13.792Z,63.34
2018-03-16T23:58:42.167Z,64.11
